Impacts TAF Board
For situational awareness. Not to be used for flight planning purposes.
IDs:

KJCT - Junction/Kimble Cnty, TX, US

Issued at 1126 UTC 14 Dec 2019
Updated at 1349 UTC 14 Dec 2019
Potential Impact None Slight Moderate High
Time1251Z 14/14Z 14/15Z 14/16Z 14/17Z 14/18Z 14/19Z 14/20Z 14/21Z 14/22Z 14/23Z 15/00Z 15/01Z 15/02Z>>
Type OBS PRVL PRVL PRVL PRVL PRVL PRVL PRVL PRVL PRVL PRVL PRVL PRVL PRVL
VIS 10 >6 >6 >6 >6 >6 >6 >6 >6 >6 >6 >6 >6 >6
CIG -- -- -- -- -- -- -- -- -- -- -- -- -- --
Cover CLR SCT SCT SCT SCT SKC SKC SKC SKC SKC SKC SKC SKC SKC
FltCat VFR VFR VFR VFR VFR VFR VFR VFR VFR VFR VFR VFR VFR VFR
WX -- -- -- -- -- -- -- -- -- -- -- -- -- --
WDir VRB VRB VRB VRB VRB 210 210 210 210 210 210 210 210 210
WSpd 0 5 5 5 5 10 10 10 10 10 10 10 10 10
WGst -- -- -- -- -- -- -- -- -- -- -- -- -- --
Raw TAF
KJCT 141126Z 1412/1512 VRB05KT P6SM SCT250
  FM141800 21010KT P6SM SKC


Raw METAR
KJCT 141251Z AUTO 00000KT 10SM CLR 03/01 A2988 RMK AO2 SLP100 T00280011
KJCT 141151Z AUTO 00000KT 10SM CLR 03/02 A2988 RMK AO2 SLP098 T00330017 10083 20033 58006
KJCT 141051Z AUTO 00000KT 10SM CLR 03/02 A2989 RMK AO2 SLP099 T00330017

METAR Board
Radar Display
Forecast Discussion
For situational awareness. Not to be used for flight planning purposes.